sensor_id;sensor_type;location;lat;lon;timestamp;temperature;humidity
26503;DHT22;14177;51.520;6.764;2023-04-03T00:01:16;2.10;99.90
26503;DHT22;14177;51.520;6.764;2023-04-03T00:03:43;2.10;99.90
26503;DHT22;14177;51.520;6.764;2023-04-03T00:06:11;2.00;99.90
26503;DHT22;14177;51.520;6.764;2023-04-03T00:08:40;2.00;99.90
26503;DHT22;14177;51.520;6.764;2023-04-03T00:11:09;2.00;99.90
26503;DHT22;14177;51.520;6.764;2023-04-03T00:13:37;2.00;99.90
26503;DHT22;14177;51.520;6.764;2023-04-03T00:16:07;1.90;99.90
26503;DHT22;14177;51.520;6.764;2023-04-03T00:18:38;1.90;99.90
26503;DHT22;14177;51.520;6.764;2023-04-03T00:21:07;1.90;99.90
26503;DHT22;14177;51.520;6.764;2023-04-03T00:23:36;1.90;99.90
26503;DHT22;14177;51.520;6.764;2023-04-03T00:26:03;1.80;99.90
26503;DHT22;14177;51.520;6.764;2023-04-03T00:28:30;1.80;99.90
26503;DHT22;14177;51.520;6.764;2023-04-03T00:30:57;1.80;99.90
26503;DHT22;14177;51.520;6.764;2023-04-03T00:33:25;1.80;99.90
26503;DHT22;14177;51.520;6.764;2023-04-03T00:35:52;1.80;99.90
26503;DHT22;14177;51.520;6.764;2023-04-03T00:38:20;1.70;99.90
26503;DHT22;14177;51.520;6.764;2023-04-03T00:40:49;1.70;99.90
26503;DHT22;14177;51.520;6.764;2023-04-03T00:43:19;1.70;99.90
26503;DHT22;14177;51.520;6.764;2023-04-03T00:45:53;1.60;99.90
26503;DHT22;14177;51.520;6.764;2023-04-03T00:48:26;1.60;99.90
26503;DHT22;14177;51.520;6.764;2023-04-03T00:50:57;1.60;99.90
26503;DHT22;14177;51.520;6.764;2023-04-03T00:53:30;1.60;99.90
26503;DHT22;14177;51.520;6.764;2023-04-03T00:56:00;1.50;99.90
26503;DHT22;14177;51.520;6.764;2023-04-03T00:58:33;1.50;99.90
26503;DHT22;14177;51.520;6.764;2023-04-03T01:01:10;1.50;99.90
26503;DHT22;14177;51.520;6.764;2023-04-03T01:03:40;1.50;99.90
26503;DHT22;14177;51.520;6.764;2023-04-03T01:06:08;1.50;99.90
26503;DHT22;14177;51.520;6.764;2023-04-03T01:08:36;1.40;99.90
26503;DHT22;14177;51.520;6.764;2023-04-03T01:11:03;1.40;99.90
26503;DHT22;14177;51.520;6.764;2023-04-03T01:13:32;1.40;99.90
26503;DHT22;14177;51.520;6.764;2023-04-03T01:16:04;1.40;99.90
26503;DHT22;14177;51.520;6.764;2023-04-03T01:18:34;1.30;99.90
26503;DHT22;14177;51.520;6.764;2023-04-03T01:21:30;1.40;99.90
26503;DHT22;14177;51.520;6.764;2023-04-03T01:24:33;1.30;99.90
26503;DHT22;14177;51.520;6.764;2023-04-03T01:27:06;1.30;99.90
26503;DHT22;14177;51.520;6.764;2023-04-03T01:29:36;1.30;99.90
26503;DHT22;14177;51.520;6.764;2023-04-03T01:32:04;1.40;99.90
26503;DHT22;14177;51.520;6.764;2023-04-03T01:34:32;1.40;99.90
26503;DHT22;14177;51.520;6.764;2023-04-03T01:37:00;1.40;99.90
26503;DHT22;14177;51.520;6.764;2023-04-03T01:39:27;1.40;99.90
26503;DHT22;14177;51.520;6.764;2023-04-03T01:41:55;1.40;99.90
26503;DHT22;14177;51.520;6.764;2023-04-03T01:44:32;1.40;99.90
26503;DHT22;14177;51.520;6.764;2023-04-03T01:46:59;1.50;99.90
26503;DHT22;14177;51.520;6.764;2023-04-03T01:49:27;1.50;99.90
26503;DHT22;14177;51.520;6.764;2023-04-03T01:51:55;1.50;99.90
26503;DHT22;14177;51.520;6.764;2023-04-03T01:54:22;1.50;99.90
26503;DHT22;14177;51.520;6.764;2023-04-03T01:56:50;1.50;99.90
26503;DHT22;14177;51.520;6.764;2023-04-03T01:59:18;1.60;99.90
26503;DHT22;14177;51.520;6.764;2023-04-03T02:01:46;1.60;99.90
26503;DHT22;14177;51.520;6.764;2023-04-03T02:04:13;1.60;99.90
26503;DHT22;14177;51.520;6.764;2023-04-03T02:06:41;1.60;99.90
26503;DHT22;14177;51.520;6.764;2023-04-03T02:09:08;1.60;99.90
26503;DHT22;14177;51.520;6.764;2023-04-03T02:11:35;1.60;99.90
26503;DHT22;14177;51.520;6.764;2023-04-03T02:14:02;1.60;99.90
26503;DHT22;14177;51.520;6.764;2023-04-03T02:16:29;1.60;99.90
26503;DHT22;14177;51.520;6.764;2023-04-03T02:18:57;1.60;99.90
26503;DHT22;14177;51.520;6.764;2023-04-03T02:21:24;1.60;99.90
26503;DHT22;14177;51.520;6.764;2023-04-03T02:23:53;1.60;99.90
26503;DHT22;14177;51.520;6.764;2023-04-03T02:26:20;1.60;99.90
26503;DHT22;14177;51.520;6.764;2023-04-03T02:28:47;1.50;99.90
26503;DHT22;14177;51.520;6.764;2023-04-03T02:31:14;1.50;99.90
26503;DHT22;14177;51.520;6.764;2023-04-03T02:33:43;1.50;99.90
26503;DHT22;14177;51.520;6.764;2023-04-03T02:36:13;1.50;99.90
26503;DHT22;14177;51.520;6.764;2023-04-03T02:38:43;1.40;99.90
26503;DHT22;14177;51.520;6.764;2023-04-03T02:41:11;1.40;99.90
26503;DHT22;14177;51.520;6.764;2023-04-03T02:43:40;1.30;99.90
26503;DHT22;14177;51.520;6.764;2023-04-03T02:46:07;1.30;99.90
26503;DHT22;14177;51.520;6.764;2023-04-03T02:48:37;1.30;99.90
26503;DHT22;14177;51.520;6.764;2023-04-03T02:51:04;1.30;99.90
26503;DHT22;14177;51.520;6.764;2023-04-03T02:53:31;1.20;99.90
26503;DHT22;14177;51.520;6.764;2023-04-03T02:56:05;1.20;99.90
26503;DHT22;14177;51.520;6.764;2023-04-03T02:58:32;1.20;99.90
26503;DHT22;14177;51.520;6.764;2023-04-03T03:01:01;1.10;99.90
26503;DHT22;14177;51.520;6.764;2023-04-03T03:03:29;1.10;99.90
26503;DHT22;14177;51.520;6.764;2023-04-03T03:06:12;1.10;99.90
26503;DHT22;14177;51.520;6.764;2023-04-03T03:08:41;1.10;99.90
26503;DHT22;14177;51.520;6.764;2023-04-03T03:11:09;1.10;99.90
26503;DHT22;14177;51.520;6.764;2023-04-03T03:13:36;1.10;99.90
26503;DHT22;14177;51.520;6.764;2023-04-03T03:16:07;1.10;99.90
26503;DHT22;14177;51.520;6.764;2023-04-03T03:18:36;1.10;99.90
26503;DHT22;14177;51.520;6.764;2023-04-03T03:21:04;1.10;99.90
26503;DHT22;14177;51.520;6.764;2023-04-03T03:23:32;1.10;99.90
26503;DHT22;14177;51.520;6.764;2023-04-03T03:26:02;1.10;99.90
26503;DHT22;14177;51.520;6.764;2023-04-03T03:28:35;1.10;99.90
26503;DHT22;14177;51.520;6.764;2023-04-03T03:31:05;1.10;99.90
26503;DHT22;14177;51.520;6.764;2023-04-03T03:33:33;1.10;99.90
26503;DHT22;14177;51.520;6.764;2023-04-03T03:36:04;1.10;99.90
26503;DHT22;14177;51.520;6.764;2023-04-03T03:38:35;1.10;99.90
26503;DHT22;14177;51.520;6.764;2023-04-03T03:41:03;1.00;99.90
26503;DHT22;14177;51.520;6.764;2023-04-03T03:43:32;1.00;99.90
26503;DHT22;14177;51.520;6.764;2023-04-03T03:45:59;1.00;99.90
26503;DHT22;14177;51.520;6.764;2023-04-03T03:48:27;1.00;99.90
26503;DHT22;14177;51.520;6.764;2023-04-03T03:50:55;1.00;99.90
26503;DHT22;14177;51.520;6.764;2023-04-03T03:53:26;1.00;99.90
26503;DHT22;14177;51.520;6.764;2023-04-03T03:55:58;1.00;99.90
26503;DHT22;14177;51.520;6.764;2023-04-03T03:58:27;1.00;99.90
26503;DHT22;14177;51.520;6.764;2023-04-03T04:00:54;1.00;99.90
26503;DHT22;14177;51.520;6.764;2023-04-03T04:03:21;0.90;99.90
26503;DHT22;14177;51.520;6.764;2023-04-03T04:05:50;1.00;99.90
26503;DHT22;14177;51.520;6.764;2023-04-03T04:08:17;0.90;99.90
26503;DHT22;14177;51.520;6.764;2023-04-03T04:10:45;1.00;99.90
26503;DHT22;14177;51.520;6.764;2023-04-03T04:13:14;1.00;99.90
26503;DHT22;14177;51.520;6.764;2023-04-03T04:15:43;1.00;99.90
26503;DHT22;14177;51.520;6.764;2023-04-03T04:18:10;1.00;99.90
26503;DHT22;14177;51.520;6.764;2023-04-03T04:20:39;1.10;99.90
26503;DHT22;14177;51.520;6.764;2023-04-03T04:23:07;1.10;99.90
26503;DHT22;14177;51.520;6.764;2023-04-03T04:25:36;1.10;99.90
26503;DHT22;14177;51.520;6.764;2023-04-03T04:28:04;1.10;99.90
26503;DHT22;14177;51.520;6.764;2023-04-03T04:30:32;1.10;99.90
26503;DHT22;14177;51.520;6.764;2023-04-03T04:32:59;1.10;99.90
26503;DHT22;14177;51.520;6.764;2023-04-03T04:35:27;1.10;99.90
26503;DHT22;14177;51.520;6.764;2023-04-03T04:37:54;1.20;99.90
26503;DHT22;14177;51.520;6.764;2023-04-03T04:40:47;1.20;99.90
26503;DHT22;14177;51.520;6.764;2023-04-03T04:43:15;1.20;99.90
26503;DHT22;14177;51.520;6.764;2023-04-03T04:46:10;1.20;99.90
26503;DHT22;14177;51.520;6.764;2023-04-03T04:48:46;1.20;99.90
26503;DHT22;14177;51.520;6.764;2023-04-03T04:51:16;1.20;99.90
26503;DHT22;14177;51.520;6.764;2023-04-03T04:53:44;1.20;99.90
26503;DHT22;14177;51.520;6.764;2023-04-03T04:56:14;1.20;99.90
26503;DHT22;14177;51.520;6.764;2023-04-03T04:58:41;1.20;99.90
26503;DHT22;14177;51.520;6.764;2023-04-03T05:01:10;1.20;99.90
26503;DHT22;14177;51.520;6.764;2023-04-03T05:03:47;1.20;99.90
26503;DHT22;14177;51.520;6.764;2023-04-03T05:06:15;1.10;99.90
26503;DHT22;14177;51.520;6.764;2023-04-03T05:08:54;1.10;99.90
26503;DHT22;14177;51.520;6.764;2023-04-03T05:11:27;1.10;99.90
26503;DHT22;14177;51.520;6.764;2023-04-03T05:14:12;1.10;99.90
26503;DHT22;14177;51.520;6.764;2023-04-03T05:16:40;1.10;99.90
26503;DHT22;14177;51.520;6.764;2023-04-03T05:19:07;1.10;99.90
26503;DHT22;14177;51.520;6.764;2023-04-03T05:21:34;1.10;99.90
26503;DHT22;14177;51.520;6.764;2023-04-03T05:24:07;1.10;99.90
26503;DHT22;14177;51.520;6.764;2023-04-03T05:26:58;1.10;99.90
26503;DHT22;14177;51.520;6.764;2023-04-03T05:29:50;1.10;99.90
26503;DHT22;14177;51.520;6.764;2023-04-03T05:32:26;1.20;99.90
26503;DHT22;14177;51.520;6.764;2023-04-03T05:35:08;1.20;99.90
26503;DHT22;14177;51.520;6.764;2023-04-03T05:37:43;1.20;99.90
26503;DHT22;14177;51.520;6.764;2023-04-03T05:40:18;1.20;99.90
26503;DHT22;14177;51.520;6.764;2023-04-03T05:42:50;1.20;99.90
26503;DHT22;14177;51.520;6.764;2023-04-03T05:45:18;1.20;99.90
26503;DHT22;14177;51.520;6.764;2023-04-03T05:47:45;1.20;99.90
26503;DHT22;14177;51.520;6.764;2023-04-03T05:50:14;1.20;99.90
26503;DHT22;14177;51.520;6.764;2023-04-03T05:52:44;1.30;99.90
26503;DHT22;14177;51.520;6.764;2023-04-03T05:55:14;1.30;99.90
26503;DHT22;14177;51.520;6.764;2023-04-03T05:57:41;1.30;99.90
26503;DHT22;14177;51.520;6.764;2023-04-03T06:00:11;1.30;99.90
26503;DHT22;14177;51.520;6.764;2023-04-03T06:02:47;1.40;99.90
26503;DHT22;14177;51.520;6.764;2023-04-03T06:05:19;1.40;99.90
26503;DHT22;14177;51.520;6.764;2023-04-03T06:07:46;1.40;99.90
26503;DHT22;14177;51.520;6.764;2023-04-03T06:10:16;1.50;99.90
26503;DHT22;14177;51.520;6.764;2023-04-03T06:12:44;1.60;99.90
26503;DHT22;14177;51.520;6.764;2023-04-03T06:15:11;1.60;99.90
26503;DHT22;14177;51.520;6.764;2023-04-03T06:17:40;1.70;99.90
26503;DHT22;14177;51.520;6.764;2023-04-03T06:20:07;1.80;99.90
26503;DHT22;14177;51.520;6.764;2023-04-03T06:22:36;1.80;99.90
26503;DHT22;14177;51.520;6.764;2023-04-03T06:25:03;1.90;99.90
26503;DHT22;14177;51.520;6.764;2023-04-03T06:27:31;2.00;99.90
26503;DHT22;14177;51.520;6.764;2023-04-03T06:29:58;2.10;99.90
26503;DHT22;14177;51.520;6.764;2023-04-03T06:32:25;2.20;99.90
26503;DHT22;14177;51.520;6.764;2023-04-03T06:34:53;2.30;99.90
26503;DHT22;14177;51.520;6.764;2023-04-03T06:37:22;2.40;99.90
26503;DHT22;14177;51.520;6.764;2023-04-03T06:39:49;2.50;99.90
26503;DHT22;14177;51.520;6.764;2023-04-03T06:42:16;2.50;99.90
26503;DHT22;14177;51.520;6.764;2023-04-03T06:44:54;2.60;99.90
26503;DHT22;14177;51.520;6.764;2023-04-03T06:47:21;2.70;99.90
26503;DHT22;14177;51.520;6.764;2023-04-03T06:49:48;2.80;99.90
26503;DHT22;14177;51.520;6.764;2023-04-03T06:52:15;2.80;99.90
26503;DHT22;14177;51.520;6.764;2023-04-03T06:54:43;3.00;99.90
26503;DHT22;14177;51.520;6.764;2023-04-03T06:57:10;3.00;99.90
26503;DHT22;14177;51.520;6.764;2023-04-03T06:59:37;3.10;99.90
26503;DHT22;14177;51.520;6.764;2023-04-03T07:02:04;3.20;99.90
26503;DHT22;14177;51.520;6.764;2023-04-03T07:04:31;3.20;99.90
26503;DHT22;14177;51.520;6.764;2023-04-03T07:06:58;3.30;99.90
26503;DHT22;14177;51.520;6.764;2023-04-03T07:09:26;3.40;99.90
26503;DHT22;14177;51.520;6.764;2023-04-03T07:11:53;3.50;99.90
26503;DHT22;14177;51.520;6.764;2023-04-03T07:14:20;3.50;99.90
26503;DHT22;14177;51.520;6.764;2023-04-03T07:16:47;3.50;99.90
26503;DHT22;14177;51.520;6.764;2023-04-03T07:19:15;3.60;99.90
26503;DHT22;14177;51.520;6.764;2023-04-03T07:21:42;3.70;99.90
26503;DHT22;14177;51.520;6.764;2023-04-03T07:24:10;3.80;99.90
26503;DHT22;14177;51.520;6.764;2023-04-03T07:26:42;4.00;99.90
26503;DHT22;14177;51.520;6.764;2023-04-03T07:29:09;4.10;99.90
26503;DHT22;14177;51.520;6.764;2023-04-03T07:31:36;4.20;99.90
26503;DHT22;14177;51.520;6.764;2023-04-03T07:34:05;4.30;99.90
26503;DHT22;14177;51.520;6.764;2023-04-03T07:36:33;4.50;99.90
26503;DHT22;14177;51.520;6.764;2023-04-03T07:39:00;4.70;99.90
26503;DHT22;14177;51.520;6.764;2023-04-03T07:41:27;4.80;99.90
26503;DHT22;14177;51.520;6.764;2023-04-03T07:43:55;5.00;99.90
26503;DHT22;14177;51.520;6.764;2023-04-03T07:46:23;5.20;99.90
26503;DHT22;14177;51.520;6.764;2023-04-03T07:48:51;5.40;99.90
26503;DHT22;14177;51.520;6.764;2023-04-03T07:51:18;5.60;99.90
26503;DHT22;14177;51.520;6.764;2023-04-03T07:53:45;5.70;99.90
26503;DHT22;14177;51.520;6.764;2023-04-03T07:56:12;5.90;99.90
26503;DHT22;14177;51.520;6.764;2023-04-03T07:58:39;6.10;99.90
26503;DHT22;14177;51.520;6.764;2023-04-03T08:01:06;6.30;99.90
26503;DHT22;14177;51.520;6.764;2023-04-03T08:03:34;6.50;98.80
26503;DHT22;14177;51.520;6.764;2023-04-03T08:06:14;6.80;99.50
26503;DHT22;14177;51.520;6.764;2023-04-03T08:08:47;7.00;99.50
26503;DHT22;14177;51.520;6.764;2023-04-03T08:11:16;7.30;96.30
26503;DHT22;14177;51.520;6.764;2023-04-03T08:13:43;7.40;93.30
26503;DHT22;14177;51.520;6.764;2023-04-03T08:16:18;7.40;84.10
26503;DHT22;14177;51.520;6.764;2023-04-03T08:18:48;7.60;85.40
26503;DHT22;14177;51.520;6.764;2023-04-03T08:21:16;7.80;84.60
26503;DHT22;14177;51.520;6.764;2023-04-03T08:23:43;7.80;77.90
26503;DHT22;14177;51.520;6.764;2023-04-03T08:26:13;8.00;80.00
26503;DHT22;14177;51.520;6.764;2023-04-03T08:28:42;8.30;79.30
26503;DHT22;14177;51.520;6.764;2023-04-03T08:31:12;8.50;82.20
26503;DHT22;14177;51.520;6.764;2023-04-03T08:33:47;8.70;73.60
26503;DHT22;14177;51.520;6.764;2023-04-03T08:36:26;8.90;74.10
26503;DHT22;14177;51.520;6.764;2023-04-03T08:38:56;9.00;72.50
26503;DHT22;14177;51.520;6.764;2023-04-03T08:41:38;9.20;73.40
26503;DHT22;14177;51.520;6.764;2023-04-03T08:44:26;9.50;70.30
26503;DHT22;14177;51.520;6.764;2023-04-03T08:47:25;9.50;67.00
26503;DHT22;14177;51.520;6.764;2023-04-03T08:54:12;9.80;65.40
26503;DHT22;14177;51.520;6.764;2023-04-03T08:57:03;9.80;64.40
26503;DHT22;14177;51.520;6.764;2023-04-03T08:59:35;10.00;63.80
26503;DHT22;14177;51.520;6.764;2023-04-03T09:02:24;10.30;64.20
26503;DHT22;14177;51.520;6.764;2023-04-03T09:04:56;10.50;62.20
26503;DHT22;14177;51.520;6.764;2023-04-03T09:10:41;10.80;58.80
26503;DHT22;14177;51.520;6.764;2023-04-03T09:15:45;11.10;55.60
26503;DHT22;14177;51.520;6.764;2023-04-03T09:18:32;11.30;55.70
26503;DHT22;14177;51.520;6.764;2023-04-03T09:29:20;11.50;52.60
26503;DHT22;14177;51.520;6.764;2023-04-03T09:32:02;11.70;52.50
26503;DHT22;14177;51.520;6.764;2023-04-03T09:34:45;11.80;52.60
26503;DHT22;14177;51.520;6.764;2023-04-03T09:37:35;11.90;50.70
26503;DHT22;14177;51.520;6.764;2023-04-03T09:41:02;11.70;49.90
26503;DHT22;14177;51.520;6.764;2023-04-03T09:43:33;11.40;49.50
26503;DHT22;14177;51.520;6.764;2023-04-03T09:49:04;11.80;51.40
26503;DHT22;14177;51.520;6.764;2023-04-03T09:51:36;12.00;49.60
26503;DHT22;14177;51.520;6.764;2023-04-03T09:54:31;12.10;49.50
26503;DHT22;14177;51.520;6.764;2023-04-03T09:57:10;12.10;48.50
26503;DHT22;14177;51.520;6.764;2023-04-03T09:59:47;11.90;48.70
26503;DHT22;14177;51.520;6.764;2023-04-03T10:05:02;12.10;47.60
26503;DHT22;14177;51.520;6.764;2023-04-03T10:11:14;12.30;47.40
26503;DHT22;14177;51.520;6.764;2023-04-03T10:13:52;12.30;47.50
26503;DHT22;14177;51.520;6.764;2023-04-03T10:16:50;12.40;46.10
26503;DHT22;14177;51.520;6.764;2023-04-03T10:19:41;12.60;44.40
26503;DHT22;14177;51.520;6.764;2023-04-03T10:22:27;12.90;45.00
26503;DHT22;14177;51.520;6.764;2023-04-03T10:25:14;12.90;43.80
26503;DHT22;14177;51.520;6.764;2023-04-03T10:28:08;12.80;43.00
26503;DHT22;14177;51.520;6.764;2023-04-03T10:33:53;13.00;44.30
26503;DHT22;14177;51.520;6.764;2023-04-03T10:36:55;13.10;44.00
26503;DHT22;14177;51.520;6.764;2023-04-03T10:43:15;13.20;46.70
26503;DHT22;14177;51.520;6.764;2023-04-03T10:49:01;13.70;44.10
26503;DHT22;14177;51.520;6.764;2023-04-03T10:52:02;13.60;45.10
26503;DHT22;14177;51.520;6.764;2023-04-03T10:54:56;13.50;46.00
26503;DHT22;14177;51.520;6.764;2023-04-03T10:57:34;13.60;44.80
26503;DHT22;14177;51.520;6.764;2023-04-03T11:00:06;13.60;44.30
26503;DHT22;14177;51.520;6.764;2023-04-03T11:05:37;13.50;44.20
26503;DHT22;14177;51.520;6.764;2023-04-03T11:08:33;13.50;45.70
26503;DHT22;14177;51.520;6.764;2023-04-03T11:11:11;13.70;44.70
26503;DHT22;14177;51.520;6.764;2023-04-03T11:13:50;13.70;45.20
26503;DHT22;14177;51.520;6.764;2023-04-03T11:16:26;13.90;46.20
26503;DHT22;14177;51.520;6.764;2023-04-03T11:19:18;14.20;45.10
26503;DHT22;14177;51.520;6.764;2023-04-03T11:25:26;14.50;44.20
26503;DHT22;14177;51.520;6.764;2023-04-03T11:28:03;14.20;44.60
26503;DHT22;14177;51.520;6.764;2023-04-03T11:34:04;14.30;44.90
26503;DHT22;14177;51.520;6.764;2023-04-03T11:36:42;14.30;44.10
26503;DHT22;14177;51.520;6.764;2023-04-03T11:39:25;14.30;45.10
26503;DHT22;14177;51.520;6.764;2023-04-03T11:41:55;14.40;44.90
26503;DHT22;14177;51.520;6.764;2023-04-03T11:44:39;14.50;44.60
26503;DHT22;14177;51.520;6.764;2023-04-03T11:47:11;14.80;46.10
26503;DHT22;14177;51.520;6.764;2023-04-03T11:50:03;14.90;42.80
26503;DHT22;14177;51.520;6.764;2023-04-03T12:32:43;15.20;44.70
26503;DHT22;14177;51.520;6.764;2023-04-03T12:35:40;15.40;43.20
26503;DHT22;14177;51.520;6.764;2023-04-03T12:44:59;15.70;43.10
26503;DHT22;14177;51.520;6.764;2023-04-03T12:48:01;15.70;42.90
26503;DHT22;14177;51.520;6.764;2023-04-03T12:50:32;15.60;42.90
26503;DHT22;14177;51.520;6.764;2023-04-03T12:53:11;15.70;43.10
26503;DHT22;14177;51.520;6.764;2023-04-03T12:55:41;15.90;43.90
26503;DHT22;14177;51.520;6.764;2023-04-03T12:58:16;15.90;42.70
26503;DHT22;14177;51.520;6.764;2023-04-03T13:01:04;15.70;42.40
26503;DHT22;14177;51.520;6.764;2023-04-03T13:03:45;15.70;41.40
26503;DHT22;14177;51.520;6.764;2023-04-03T13:06:26;15.60;44.00
26503;DHT22;14177;51.520;6.764;2023-04-03T13:09:01;15.90;42.50
26503;DHT22;14177;51.520;6.764;2023-04-03T13:11:34;16.10;43.20
26503;DHT22;14177;51.520;6.764;2023-04-03T13:14:14;15.90;42.90
26503;DHT22;14177;51.520;6.764;2023-04-03T13:16:53;15.80;41.30
26503;DHT22;14177;51.520;6.764;2023-04-03T13:19:31;15.20;42.60
26503;DHT22;14177;51.520;6.764;2023-04-03T13:22:02;15.20;42.90
26503;DHT22;14177;51.520;6.764;2023-04-03T13:24:36;15.10;43.60
26503;DHT22;14177;51.520;6.764;2023-04-03T13:27:05;15.20;42.50
26503;DHT22;14177;51.520;6.764;2023-04-03T13:29:35;15.30;43.80
26503;DHT22;14177;51.520;6.764;2023-04-03T13:32:04;15.60;43.90
26503;DHT22;14177;51.520;6.764;2023-04-03T13:34:40;15.60;43.50
26503;DHT22;14177;51.520;6.764;2023-04-03T13:37:27;15.50;44.10
26503;DHT22;14177;51.520;6.764;2023-04-03T13:42:37;15.60;43.60
26503;DHT22;14177;51.520;6.764;2023-04-03T13:45:27;15.50;43.60
26503;DHT22;14177;51.520;6.764;2023-04-03T13:48:38;15.50;41.80
26503;DHT22;14177;51.520;6.764;2023-04-03T13:51:28;15.60;43.10
26503;DHT22;14177;51.520;6.764;2023-04-03T13:54:00;15.60;43.50
26503;DHT22;14177;51.520;6.764;2023-04-03T13:56:40;15.60;43.20
26503;DHT22;14177;51.520;6.764;2023-04-03T14:01:52;15.60;42.40
26503;DHT22;14177;51.520;6.764;2023-04-03T14:04:26;15.50;42.90
26503;DHT22;14177;51.520;6.764;2023-04-03T14:06:55;15.30;42.90
26503;DHT22;14177;51.520;6.764;2023-04-03T14:09:24;15.30;43.80
26503;DHT22;14177;51.520;6.764;2023-04-03T14:12:00;15.30;43.60
26503;DHT22;14177;51.520;6.764;2023-04-03T14:14:34;15.20;44.20
26503;DHT22;14177;51.520;6.764;2023-04-03T14:17:10;15.20;44.20
26503;DHT22;14177;51.520;6.764;2023-04-03T14:19:52;15.20;44.40
26503;DHT22;14177;51.520;6.764;2023-04-03T14:22:32;15.30;44.90
26503;DHT22;14177;51.520;6.764;2023-04-03T14:25:01;15.50;44.30
26503;DHT22;14177;51.520;6.764;2023-04-03T14:27:41;15.50;43.30
26503;DHT22;14177;51.520;6.764;2023-04-03T14:30:23;15.40;44.30
26503;DHT22;14177;51.520;6.764;2023-04-03T14:32:55;15.30;43.90
26503;DHT22;14177;51.520;6.764;2023-04-03T14:35:27;15.20;44.10
26503;DHT22;14177;51.520;6.764;2023-04-03T14:37:54;15.00;44.10
26503;DHT22;14177;51.520;6.764;2023-04-03T14:40:26;15.00;45.40
26503;DHT22;14177;51.520;6.764;2023-04-03T14:42:54;14.90;44.40
26503;DHT22;14177;51.520;6.764;2023-04-03T14:45:22;15.10;45.40
26503;DHT22;14177;51.520;6.764;2023-04-03T14:47:52;15.10;45.50
26503;DHT22;14177;51.520;6.764;2023-04-03T14:50:25;14.90;44.10
26503;DHT22;14177;51.520;6.764;2023-04-03T14:52:56;14.80;44.10
26503;DHT22;14177;51.520;6.764;2023-04-03T14:55:26;14.70;45.20
26503;DHT22;14177;51.520;6.764;2023-04-03T14:57:54;14.80;45.00
26503;DHT22;14177;51.520;6.764;2023-04-03T15:00:22;14.60;44.70
26503;DHT22;14177;51.520;6.764;2023-04-03T15:02:50;14.40;43.80
26503;DHT22;14177;51.520;6.764;2023-04-03T15:05:18;14.10;44.60
26503;DHT22;14177;51.520;6.764;2023-04-03T15:07:53;13.80;44.60
26503;DHT22;14177;51.520;6.764;2023-04-03T15:10:23;13.80;46.10
26503;DHT22;14177;51.520;6.764;2023-04-03T15:12:52;13.90;45.50
26503;DHT22;14177;51.520;6.764;2023-04-03T15:15:21;14.10;46.10
26503;DHT22;14177;51.520;6.764;2023-04-03T15:17:54;14.00;46.00
26503;DHT22;14177;51.520;6.764;2023-04-03T15:20:26;13.90;46.10
26503;DHT22;14177;51.520;6.764;2023-04-03T15:22:57;13.70;45.90
26503;DHT22;14177;51.520;6.764;2023-04-03T15:25:31;13.60;46.90
26503;DHT22;14177;51.520;6.764;2023-04-03T15:27:59;13.80;46.80
26503;DHT22;14177;51.520;6.764;2023-04-03T15:30:27;13.80;46.60
26503;DHT22;14177;51.520;6.764;2023-04-03T15:32:54;13.80;47.40
26503;DHT22;14177;51.520;6.764;2023-04-03T15:35:21;13.70;47.00
26503;DHT22;14177;51.520;6.764;2023-04-03T15:37:48;13.60;46.90
26503;DHT22;14177;51.520;6.764;2023-04-03T15:40:16;13.40;46.50
26503;DHT22;14177;51.520;6.764;2023-04-03T15:42:43;13.30;47.10
26503;DHT22;14177;51.520;6.764;2023-04-03T15:45:10;13.40;47.30
26503;DHT22;14177;51.520;6.764;2023-04-03T15:47:37;13.20;47.30
26503;DHT22;14177;51.520;6.764;2023-04-03T15:50:05;13.20;47.60
26503;DHT22;14177;51.520;6.764;2023-04-03T15:52:35;13.10;46.50
26503;DHT22;14177;51.520;6.764;2023-04-03T15:55:03;12.80;46.70
26503;DHT22;14177;51.520;6.764;2023-04-03T15:57:31;12.60;47.20
26503;DHT22;14177;51.520;6.764;2023-04-03T15:59:58;12.50;48.10
26503;DHT22;14177;51.520;6.764;2023-04-03T16:02:25;12.40;47.80
26503;DHT22;14177;51.520;6.764;2023-04-03T16:04:55;12.40;48.30
26503;DHT22;14177;51.520;6.764;2023-04-03T16:07:22;12.20;48.50
26503;DHT22;14177;51.520;6.764;2023-04-03T16:09:49;12.10;49.10
26503;DHT22;14177;51.520;6.764;2023-04-03T16:12:16;12.10;49.80
26503;DHT22;14177;51.520;6.764;2023-04-03T16:14:43;12.10;49.60
26503;DHT22;14177;51.520;6.764;2023-04-03T16:17:10;12.10;49.90
26503;DHT22;14177;51.520;6.764;2023-04-03T16:19:37;12.10;49.50
26503;DHT22;14177;51.520;6.764;2023-04-03T16:22:05;12.00;50.00
26503;DHT22;14177;51.520;6.764;2023-04-03T16:24:43;12.00;50.00
26503;DHT22;14177;51.520;6.764;2023-04-03T16:27:43;11.90;50.70
26503;DHT22;14177;51.520;6.764;2023-04-03T16:30:11;11.70;50.10
26503;DHT22;14177;51.520;6.764;2023-04-03T16:32:39;11.60;49.50
26503;DHT22;14177;51.520;6.764;2023-04-03T16:35:08;11.50;50.30
26503;DHT22;14177;51.520;6.764;2023-04-03T16:37:39;11.30;50.80
26503;DHT22;14177;51.520;6.764;2023-04-03T16:40:07;11.30;50.90
26503;DHT22;14177;51.520;6.764;2023-04-03T16:42:35;11.30;51.70
26503;DHT22;14177;51.520;6.764;2023-04-03T16:45:05;11.30;51.00
26503;DHT22;14177;51.520;6.764;2023-04-03T16:47:33;11.10;50.70
26503;DHT22;14177;51.520;6.764;2023-04-03T16:50:01;11.10;50.90
26503;DHT22;14177;51.520;6.764;2023-04-03T16:52:30;11.00;51.60
26503;DHT22;14177;51.520;6.764;2023-04-03T16:54:57;10.90;51.40
26503;DHT22;14177;51.520;6.764;2023-04-03T16:57:26;10.80;51.90
26503;DHT22;14177;51.520;6.764;2023-04-03T16:59:53;10.80;52.50
26503;DHT22;14177;51.520;6.764;2023-04-03T17:02:22;10.80;52.70
26503;DHT22;14177;51.520;6.764;2023-04-03T17:04:53;10.60;52.20
26503;DHT22;14177;51.520;6.764;2023-04-03T17:07:21;10.50;52.10
26503;DHT22;14177;51.520;6.764;2023-04-03T17:09:49;10.50;52.40
26503;DHT22;14177;51.520;6.764;2023-04-03T17:12:17;10.30;53.00
26503;DHT22;14177;51.520;6.764;2023-04-03T17:14:44;10.20;52.20
26503;DHT22;14177;51.520;6.764;2023-04-03T17:17:22;10.00;52.10
26503;DHT22;14177;51.520;6.764;2023-04-03T17:19:51;9.90;52.60
26503;DHT22;14177;51.520;6.764;2023-04-03T17:22:20;9.70;52.60
26503;DHT22;14177;51.520;6.764;2023-04-03T17:24:51;9.60;53.40
26503;DHT22;14177;51.520;6.764;2023-04-03T17:27:18;9.50;53.30
26503;DHT22;14177;51.520;6.764;2023-04-03T17:29:45;9.40;53.00
26503;DHT22;14177;51.520;6.764;2023-04-03T17:32:13;9.40;53.00
26503;DHT22;14177;51.520;6.764;2023-04-03T17:34:40;9.30;53.40
26503;DHT22;14177;51.520;6.764;2023-04-03T17:37:08;9.20;54.40
26503;DHT22;14177;51.520;6.764;2023-04-03T17:39:38;9.10;53.90
26503;DHT22;14177;51.520;6.764;2023-04-03T17:42:06;9.10;54.10
26503;DHT22;14177;51.520;6.764;2023-04-03T17:44:34;9.00;54.50
26503;DHT22;14177;51.520;6.764;2023-04-03T17:47:01;9.00;54.70
26503;DHT22;14177;51.520;6.764;2023-04-03T17:49:29;9.00;54.90
26503;DHT22;14177;51.520;6.764;2023-04-03T17:51:56;8.90;54.70